CheckWX is a tool to help pilots better visualize weather data.  It is not intended as a substitute for an official pre-flight weather briefing.

12:24:26 UTC

KDHT TAF
Dalhart Municipal Airport
Dalhart, Texas, USA
KDHT 221120Z 2212/2312 16009KT P6SM OVC035 TEMPO 2214/2218 -TSRA OVC030CB FM221800 17014KT 6SM BR VCTS OVC020CB FM222200 17016KT 6SM TSRA OVC025CB FM230200 16010KT P6SM SCT050 FM230500 22011KT P6SM FEW250

Mar-22@
12:00 UTC

Mar-22 @ 12:00 UTC

Mar-22@
18:00 UTC

Mar-22 @ 18:00 UTC

KDHT 221120Z 2212/2312 16009KT P6SM OVC035
Wind
  • 160° at 9 KTS
Cloud Levels
  • Overcast at 3,500' AGL

Mar-22@
14:00 UTC

Mar-22 @ 14:00 UTC

Mar-22@
18:00 UTC

Mar-22 @ 18:00 UTC

TEMPO 2214/2218 -TSRA OVC030CB

Temporary

Temporary Changes expected for less than half the time period

Conditions
Light Thunderstorm, Light Rain
Cloud Levels
  • Overcast at 3,000' AGL

Mar-22@
18:00 UTC

Mar-22 @ 18:00 UTC

Mar-22@
22:00 UTC

Mar-22 @ 22:00 UTC

FM221800 17014KT 6SM BR VCTS OVC020CB

From

From Standard forecast or significant change

Wind
  • 170° at 14 KTS
Conditions
Mist, Area Thunderstorm
Cloud Levels
  • Overcast at 2,000' AGL

Mar-22@
22:00 UTC

Mar-22 @ 22:00 UTC

Mar-23@
02:00 UTC

Mar-23 @ 02:00 UTC

FM222200 17016KT 6SM TSRA OVC025CB

From

From Standard forecast or significant change

Wind
  • 170° at 16 KTS
Conditions
Thunderstorm, Rain
Cloud Levels
  • Overcast at 2,500' AGL

Mar-23@
02:00 UTC

Mar-23 @ 02:00 UTC

Mar-23@
05:00 UTC

Mar-23 @ 05:00 UTC

FM230200 16010KT P6SM SCT050

From

From Standard forecast or significant change

Wind
  • 160° at 10 KTS
Cloud Levels
  • Scattered at 5,000' AGL

Mar-23@
05:00 UTC

Mar-23 @ 05:00 UTC

Mar-23@
12:00 UTC

Mar-23 @ 12:00 UTC

FM230500 22011KT P6SM FEW250

From

From Standard forecast or significant change

Wind
  • 220° at 11 KTS
Cloud Levels
  • Few at 25,000' AGL